Aérodrome :
LOGIN :

S'inscrire | Disclaimer

   EN    FR    IT 

 










Légende :    VFR   VFR Marginal   IFR   IFR Intensif   IFR Très Intensif
Visi : 
Plafond : 
>= 8 km
>= 3000ft
5 à 8 km
1000 à 3000 ft
1500m à 5 km
500 à 1000 ft
800 à 1500m
200 à 500 ft
< 800m
< 200 ft
Symboles :   Orages  Brouillard  Fortes neiges  Fortes précipitations  Vent > 20 kt
SIGMETs :   Divers  Orages  Givrage  Turbulence  Onde Orograph.  Cendres Volcan.







- Altitude de l'aérodrome : 187 ft


ETNW - Wunstorf AB

DERNIER METAR :
  • 240920Z AUTO 36005KT //// // ////// 14/12 Q1023 ///

METARs EXPIRÉS :
  • 240820Z AUTO 31004KT //// // ////// 14/12 Q1023 ///
  • 240720Z AUTO 31002KT //// // ////// 12/11 Q1023 ///

TAF TAF ETNW
Valide du 24 à 05h jusqu'au 25 à 05h UTC


240400Z 2405/2505 VRB03KT 5000 BR BKN050
TEMPO 2405/2408 VRB03KT 2000 BR SCT008 BKN015
PROB30 2405/2408 VRB01KT 0500 FG VV001
BECMG 2408/2410 31005KT 4000 -RA SCT005 BKN012
TEMPO 2410/2415 33008KT 1500 RADZ FEW003 OVC005
BECMG 2419/2421 VRB03KT 3000 BR SCT006 SCT030
BECMG 2421/2423 VRB03KT 0500 FG VV001 SCT070 CANCEL BY ETGL
Pas de NOTAMs connus pour ce terrain.



MET'MAP, la Météo Aéronautique d'un coup d'oeil ! - Copyright ORBIFLY Décembre 2007 - Disclaimer

ORBIFLY MET'MAP TEAM :

Programmation & Développement : Alexandra Zaïnal
Conception & Développement : Baudouin d'Aumeries
Co-Programmation & Développement : Marc-Olivier Méhu
Soutien technique & logistique : Manuel Goepfert

Contact : metmap@orbifly.com




SOURCES & CREDITS :

   NOAA